Time;durP1;ratioP1;P1;durP2;ratioP2;P2;SDS_P1;SDS_P2;PMS_P1;PMS_P2;Temp;Humidity;BMP_temperature;BMP_pressure;BME280_temperature;BME280_humidity;BME280_pressure;Samples;Min_cycle;Max_cycle;Signal;HPM_P1;HPM_P2
2022/07/16 00:03:08;;;;;;;5.23;3.40;;;;;;;-145.69;100.00;71864.06;5055308;28;20249;-80
2022/07/16 00:05:38;;;;;;;10.07;4.10;;;;;;;-145.69;100.00;71876.00;5055084;28;20444;-80
2022/07/16 00:08:05;;;;;;;8.80;3.80;;;;;;;-145.69;100.00;71889.94;5054920;28;20203;-80
2022/07/16 00:10:33;;;;;;;5.70;3.70;;;;;;;-145.69;100.00;71891.94;5054546;28;20605;-80
2022/07/16 00:13:02;;;;;;;6.70;3.50;;;;;;;-145.69;99.03;71876.00;5055248;28;20207;-80
2022/07/16 00:15:34;;;;;;;8.53;3.60;;;;;;;-145.69;98.88;71889.94;5054808;28;20203;-80
2022/07/16 00:20:49;;;;;;;12.60;4.13;;;;;;;-145.69;100.00;71895.91;5055053;28;20197;-80
2022/07/16 00:23:17;;;;;;;5.33;3.40;;;;;;;-145.69;100.00;71897.91;5054725;28;20223;-80
2022/07/16 00:25:43;;;;;;;9.07;4.00;;;;;;;-145.69;100.00;71903.88;5054733;28;20200;-80
2022/07/16 00:28:10;;;;;;;5.13;3.50;;;;;;;-145.69;97.33;71883.97;5054924;28;20200;-80
2022/07/16 00:30:39;;;;;;;8.33;3.40;;;;;;;-145.69;100.00;71909.84;5054794;28;20207;-80
2022/07/16 00:33:05;;;;;;;6.80;3.30;;;;;;;-145.69;99.78;71909.84;5054855;28;20295;-80
2022/07/16 00:35:32;;;;;;;7.70;4.33;;;;;;;-145.69;100.00;71931.72;5054640;28;20294;-78
2022/07/16 00:37:58;;;;;;;8.20;3.57;;;;;;;-145.69;100.00;71951.63;5054829;28;20196;-79
2022/07/16 00:40:25;;;;;;;7.27;4.33;;;;;;;-145.69;100.00;71965.56;5058436;28;20195;-79
2022/07/16 00:42:51;;;;;;;6.33;3.70;;;;;;;-145.69;100.00;71979.50;5073260;28;20270;-80
2022/07/16 00:45:18;;;;;;;8.93;3.73;;;;;;;-145.69;100.00;71975.50;5074047;28;20260;-79
2022/07/16 00:47:45;;;;;;;6.13;3.87;;;;;;;-145.69;100.00;71979.50;5074142;28;20209;-80
2022/07/16 00:50:16;;;;;;;5.33;3.73;;;;;;;-145.69;100.00;71963.56;5073971;28;20230;-80
2022/07/16 00:52:44;;;;;;;7.80;4.03;;;;;;;-145.69;100.00;71965.56;5074114;28;20199;-80
2022/07/16 00:55:11;;;;;;;8.17;4.30;;;;;;;-145.69;100.00;71959.59;5074391;28;20202;-80
2022/07/16 00:57:41;;;;;;;7.23;3.93;;;;;;;-145.69;100.00;71951.63;5074502;28;20203;-79
2022/07/16 01:00:11;;;;;;;7.00;4.33;;;;;;;-145.69;100.00;71945.66;5074192;28;20206;-80
2022/07/16 01:02:38;;;;;;;6.60;3.70;;;;;;;-145.69;100.00;71947.66;5073828;28;20234;-80
2022/07/16 01:05:08;;;;;;;6.60;4.10;;;;;;;-145.69;100.00;71939.69;5073675;28;20665;-79
2022/07/16 01:07:35;;;;;;;8.00;3.83;;;;;;;-145.69;100.00;71947.66;5074184;28;20256;-80
2022/07/16 01:10:03;;;;;;;7.27;4.23;;;;;;;-145.69;100.00;71953.63;5073938;28;20280;-80
2022/07/16 01:12:30;;;;;;;10.30;4.10;;;;;;;-145.69;100.00;71959.59;5073746;28;20206;-81
2022/07/16 01:14:57;;;;;;;7.22;4.13;;;;;;;-145.69;100.00;71971.53;5073514;28;20809;-80
2022/07/16 01:17:24;;;;;;;9.90;3.93;;;;;;;-145.69;100.00;71967.56;5073748;28;20202;-80
2022/07/16 01:19:51;;;;;;;6.97;4.10;;;;;;;-145.69;100.00;71967.56;5073356;28;20207;-80
2022/07/16 01:22:21;;;;;;;6.87;3.67;;;;;;;-145.69;100.00;71965.56;5073270;28;20222;-80
2022/07/16 01:24:49;;;;;;;8.03;4.10;;;;;;;-145.69;100.00;71951.63;5073639;28;20202;-80
2022/07/16 01:27:17;;;;;;;12.20;3.53;;;;;;;-145.69;100.00;71949.66;5073547;28;20218;-80
2022/07/16 01:29:43;;;;;;;6.50;3.63;;;;;;;-145.69;100.00;71971.53;5073692;28;20203;-80
2022/07/16 01:32:10;;;;;;;7.10;3.80;;;;;;;-145.69;100.00;72007.34;5066881;28;20210;-80
2022/07/16 01:34:37;;;;;;;6.37;4.00;;;;;;;-145.69;100.00;72031.25;5053569;28;20207;-80
2022/07/16 01:37:07;;;;;;;9.37;4.10;;;;;;;-145.69;100.00;72035.22;5053515;28;20196;-79
2022/07/16 01:39:36;;;;;;;9.77;4.77;;;;;;;-145.69;100.00;72025.28;5053351;28;20203;-80
2022/07/16 01:42:06;;;;;;;6.70;4.33;;;;;;;-145.69;100.00;72055.13;5070488;28;20551;-80
2022/07/16 01:44:34;;;;;;;5.33;3.80;;;;;;;-145.69;100.00;72063.09;5069893;28;20209;-79
2022/07/16 01:47:01;;;;;;;7.37;4.67;;;;;;;-145.69;100.00;72073.03;5072748;28;20206;-79
2022/07/16 01:49:31;;;;;;;7.27;4.10;;;;;;;-145.69;100.00;72069.06;5073162;28;20229;-79
2022/07/16 01:51:58;;;;;;;10.30;4.57;;;;;;;-145.69;100.00;72059.09;5073130;28;20199;-79
2022/07/16 01:54:24;;;;;;;10.80;4.53;;;;;;;-145.69;100.00;72037.22;5072825;28;20566;-79
2022/07/16 01:56:50;;;;;;;7.57;4.30;;;;;;;-145.69;100.00;72035.22;5072847;28;20547;-79
2022/07/16 01:59:18;;;;;;;9.10;4.13;;;;;;;-145.69;100.00;72051.16;5073009;28;20222;-79
2022/07/16 02:01:45;;;;;;;6.67;4.10;;;;;;;-145.69;100.00;72071.03;5073213;28;20245;-78
2022/07/16 02:04:11;;;;;;;10.43;4.53;;;;;;;-145.69;100.00;72086.97;5072828;28;20226;-79
2022/07/16 02:06:38;;;;;;;7.60;4.60;;;;;;;-145.69;100.00;72086.97;5072495;28;20199;-79
2022/07/16 02:09:04;;;;;;;11.80;4.87;;;;;;;-145.69;100.00;72088.97;5073137;28;20203;-79
2022/07/16 02:11:30;;;;;;;9.27;4.07;;;;;;;-145.69;100.00;72106.88;5072799;28;20218;-79
2022/07/16 02:13:57;;;;;;;8.93;4.23;;;;;;;-145.69;100.00;72122.78;5073097;28;20203;-79
2022/07/16 02:16:25;;;;;;;7.10;4.40;;;;;;;-145.69;100.00;72126.78;5072957;28;20199;-79
2022/07/16 02:18:51;;;;;;;8.77;4.13;;;;;;;-145.69;100.00;72134.72;5072974;28;20198;-79
2022/07/16 02:21:18;;;;;;;15.40;5.20;;;;;;;-145.69;100.00;72106.88;5073999;28;20195;-79
2022/07/16 02:23:44;;;;;;;10.97;4.47;;;;;;;-145.69;100.00;72090.94;5072818;28;20226;-80
2022/07/16 02:26:11;;;;;;;11.43;5.07;;;;;;;-145.69;100.00;72084.97;5072432;28;20199;-79
2022/07/16 02:28:37;;;;;;;8.50;5.00;;;;;;;-145.69;100.00;72077.00;5072963;28;20256;-80
2022/07/16 02:31:03;;;;;;;13.30;4.57;;;;;;;-145.69;100.00;72079.00;5072642;28;20535;-79
2022/07/16 02:33:31;;;;;;;7.63;4.30;;;;;;;-145.69;100.00;72075.03;5072687;28;20202;-79
2022/07/16 02:35:58;;;;;;;13.47;5.17;;;;;;;-145.69;100.00;72081.00;5072783;28;20202;-79
2022/07/16 02:38:24;;;;;;;7.87;4.43;;;;;;;-145.69;100.00;72102.88;5072693;28;20210;-79
2022/07/16 02:40:51;;;;;;;9.03;5.00;;;;;;;-145.69;100.00;72130.75;5072567;28;20191;-79
2022/07/16 02:43:18;;;;;;;7.13;4.37;;;;;;;-145.69;100.00;72134.72;5072421;28;20234;-79
2022/07/16 02:45:45;;;;;;;9.13;4.57;;;;;;;-145.69;100.00;72130.75;5072790;28;20198;-79
2022/07/16 02:48:12;;;;;;;10.50;4.90;;;;;;;-145.69;100.00;72116.81;5072524;28;20650;-79
2022/07/16 02:50:40;;;;;;;6.70;4.57;;;;;;;-145.69;100.00;72114.81;5072229;28;20230;-79
2022/07/16 02:53:07;;;;;;;9.13;4.80;;;;;;;-145.69;100.00;72118.81;5072457;28;20195;-79
2022/07/16 02:55:33;;;;;;;12.67;4.67;;;;;;;-145.69;100.00;72110.84;5072648;28;20203;-79
2022/07/16 02:58:00;;;;;;;8.40;4.80;;;;;;;-145.69;100.00;72102.88;5072673;28;20213;-79
2022/07/16 03:00:28;;;;;;;8.87;4.77;;;;;;;-145.69;100.00;72112.84;5072219;28;20680;-79
2022/07/16 03:02:55;;;;;;;7.20;4.47;;;;;;;-145.69;100.00;72130.75;5072338;28;20223;-79
2022/07/16 03:05:22;;;;;;;8.13;4.90;;;;;;;-145.69;100.00;72138.72;5073228;28;20217;-79
2022/07/16 03:07:50;;;;;;;11.13;5.00;;;;;;;-145.69;100.00;72126.78;5076242;28;20202;-79
2022/07/16 03:10:17;;;;;;;7.00;4.07;;;;;;;-145.69;100.00;72150.66;5076352;28;20202;-78
2022/07/16 03:12:44;;;;;;;8.53;4.73;;;;;;;-145.69;100.00;72152.66;5076320;28;20203;-79
2022/07/16 03:15:12;;;;;;;8.23;4.73;;;;;;;-145.69;100.00;72152.66;5076249;28;20207;-80
2022/07/16 03:17:39;;;;;;;9.43;4.47;;;;;;;-145.69;100.00;72154.63;5075589;28;20203;-79
2022/07/16 03:20:06;;;;;;;6.87;4.73;;;;;;;-145.69;100.00;72178.53;5076020;28;20203;-79
2022/07/16 03:22:33;;;;;;;6.67;4.80;;;;;;;-145.69;100.00;72188.47;5076235;28;20226;-79
2022/07/16 03:25:01;;;;;;;7.60;4.83;;;;;;;-145.69;100.00;72212.34;5076077;28;20198;-79
2022/07/16 03:27:28;;;;;;;9.13;4.43;;;;;;;-145.69;100.00;72220.31;5076004;28;20202;-79
2022/07/16 03:29:54;;;;;;;9.10;4.90;;;;;;;-145.69;100.00;72216.34;5075528;28;20680;-78
2022/07/16 03:32:20;;;;;;;9.73;4.83;;;;;;;-145.69;100.00;72210.38;5075680;28;20213;-78
2022/07/16 03:34:47;;;;;;;8.43;4.90;;;;;;;-145.69;100.00;72214.34;5075675;28;20203;-79
2022/07/16 03:37:14;;;;;;;9.73;4.83;;;;;;;-145.69;100.00;72214.34;5075898;28;20275;-79
2022/07/16 03:39:40;;;;;;;12.15;6.15;;;;;;;-145.69;100.00;72194.44;5074449;28;20926;-79
2022/07/16 03:42:08;;;;;;;8.87;5.57;;;;;;;-145.69;100.00;72190.47;5075430;28;20549;-79
2022/07/16 03:44:34;;;;;;;9.23;4.53;;;;;;;-145.69;100.00;72190.47;5075468;28;20231;-79
2022/07/16 03:47:01;;;;;;;11.07;5.50;;;;;;;-145.69;100.00;72178.53;5067073;28;20294;-79
2022/07/16 03:49:27;;;;;;;8.23;5.50;;;;;;;-145.69;100.00;72172.53;5055200;28;20586;-80
2022/07/16 03:51:54;;;;;;;9.10;5.60;;;;;;;-145.69;100.00;72156.63;5055653;28;20211;-80
2022/07/16 03:54:20;;;;;;;7.17;4.80;;;;;;;-145.69;100.00;72158.63;5055346;28;20207;-79
2022/07/16 03:56:47;;;;;;;7.67;4.60;;;;;;;-145.69;100.00;72168.56;5055262;28;20532;-80
2022/07/16 03:59:14;;;;;;;12.20;4.87;;;;;;;-145.69;100.00;72162.59;5055341;28;20203;-80
2022/07/16 04:01:41;;;;;;;9.07;4.77;;;;;;;-145.69;100.00;72150.66;5055205;28;20666;-79
2022/07/16 04:04:07;;;;;;;9.97;4.80;;;;;;;-145.69;100.00;72172.53;5055081;28;20605;-79
2022/07/16 04:06:34;;;;;;;10.50;4.70;;;;;;;-145.69;100.00;72182.50;5055073;28;20710;-80
2022/07/16 04:09:00;;;;;;;9.63;5.13;;;;;;;-145.69;100.00;72174.53;5055210;28;20206;-80
2022/07/16 04:11:27;;;;;;;9.67;5.60;;;;;;;-145.69;100.00;72150.66;5054986;28;20203;-80
2022/07/16 04:13:53;;;;;;;11.33;5.30;;;;;;;-145.69;100.00;72136.72;5055031;28;20783;-80
2022/07/16 04:16:21;;;;;;;9.50;5.23;;;;;;;-145.69;100.00;72136.72;5054008;28;20705;-80
2022/07/16 04:18:48;;;;;;;7.73;4.47;;;;;;;-145.69;100.00;72154.63;5054211;28;20676;-80
2022/07/16 04:21:14;;;;;;;7.60;5.07;;;;;;;-145.69;100.00;72154.63;5055001;28;20558;-80
2022/07/16 04:23:41;;;;;;;10.57;5.23;;;;;;;-145.69;100.00;72166.56;5054947;28;20239;-80
2022/07/16 04:26:07;;;;;;;11.03;5.13;;;;;;;-145.69;100.00;72180.50;5055019;28;20200;-80
2022/07/16 04:28:33;;;;;;;9.53;4.17;;;;;;;-145.69;100.00;72186.47;5054875;28;20203;-79
2022/07/16 04:31:00;;;;;;;12.03;4.93;;;;;;;-145.69;100.00;72170.56;5054672;28;20211;-79
2022/07/16 04:33:28;;;;;;;16.00;5.00;;;;;;;-145.69;100.00;72160.59;5054799;28;20207;-79
2022/07/16 04:35:54;;;;;;;8.77;4.80;;;;;;;-145.69;100.00;72146.69;5054676;28;20199;-79
2022/07/16 04:38:21;;;;;;;8.40;4.80;;;;;;;-145.69;100.00;72122.78;5055127;28;20207;-80
2022/07/16 04:40:47;;;;;;;9.03;5.10;;;;;;;-145.69;100.00;72112.84;5061266;28;20191;-80
2022/07/16 04:43:14;;;;;;;10.57;4.83;;;;;;;-145.69;100.00;72114.81;5074963;28;20226;-79
2022/07/16 04:45:40;;;;;;;9.33;5.07;;;;;;;-145.69;100.00;72110.84;5074372;28;20199;-80
2022/07/16 04:48:07;;;;;;;8.57;4.43;;;;;;;-145.69;100.00;72092.94;5073927;28;20724;-80
2022/07/16 04:50:34;;;;;;;10.97;5.17;;;;;;;-145.69;100.00;72079.00;5074115;28;20395;-80
2022/07/16 04:53:01;;;;;;;6.67;4.10;;;;;;;-145.69;100.00;72071.03;5074371;28;20673;-80
2022/07/16 04:55:28;;;;;;;8.60;4.73;;;;;;;-145.69;100.00;72067.06;5073926;28;20202;-80
2022/07/16 04:57:54;;;;;;;9.87;4.47;;;;;;;-145.69;100.00;72069.06;5074240;28;20281;-80
2022/07/16 05:00:21;;;;;;;9.73;5.03;;;;;;;-145.69;100.00;72051.16;5074035;28;20202;-80
2022/07/16 05:02:59;;;;;;;8.07;4.37;;;;;;;-145.69;100.00;72043.19;5074283;28;20210;-80
2022/07/16 05:05:28;;;;;;;7.23;4.73;;;;;;;-145.69;100.00;72035.22;5073809;28;20202;-81
2022/07/16 05:07:56;;;;;;;6.67;4.50;;;;;;;-145.69;100.00;72033.22;5074136;28;20203;-80
2022/07/16 05:10:24;;;;;;;8.03;4.10;;;;;;;-145.69;100.00;72029.25;5073768;28;20198;-80
2022/07/16 05:12:51;;;;;;;8.43;4.30;;;;;;;-145.69;100.00;72023.28;5073916;28;20293;-79
2022/07/16 05:15:17;;;;;;;8.97;4.57;;;;;;;-145.69;100.00;72015.31;5073850;28;20203;-80
2022/07/16 05:17:44;;;;;;;10.07;4.37;;;;;;;-145.69;100.00;72003.38;5073963;28;20209;-80
2022/07/16 05:20:10;;;;;;;6.50;3.80;;;;;;;-145.69;100.00;71989.44;5073681;28;20203;-80
2022/07/16 05:22:37;;;;;;;8.77;4.20;;;;;;;-145.69;100.00;71975.50;5073709;28;20203;-80
2022/07/16 05:25:06;;;;;;;6.20;4.35;;;;;;;-145.69;100.00;71959.59;5072372;28;20483;-79
2022/07/16 05:27:32;;;;;;;9.63;4.63;;;;;;;-145.69;100.00;71953.63;5073350;28;20653;-79
2022/07/16 05:29:59;;;;;;;6.40;4.00;;;;;;;-145.69;100.00;71943.69;5073147;28;20231;-80
2022/07/16 05:32:25;;;;;;;9.77;3.70;;;;;;;-145.69;100.00;71927.75;5073686;28;20207;-80
2022/07/16 05:34:52;;;;;;;7.57;3.90;;;;;;;-145.69;100.00;71911.84;5073152;28;20210;-80
2022/07/16 05:37:18;;;;;;;8.60;4.27;;;;;;;-145.69;100.00;71895.91;5074632;28;20199;-80
2022/07/16 05:39:44;;;;;;;12.07;4.33;;;;;;;-145.69;100.00;71874.03;5073362;28;20561;-81
2022/07/16 05:42:12;;;;;;;8.17;3.70;;;;;;;-145.69;100.00;71838.19;5073437;28;20195;-80
2022/07/16 05:44:41;;;;;;;6.60;4.00;;;;;;;-145.69;100.00;71796.41;5057657;28;20242;-80
2022/07/16 05:47:08;;;;;;;6.90;3.90;;;;;;;-145.69;100.00;71728.75;5053382;28;20203;-80
2022/07/16 05:49:34;;;;;;;10.30;3.55;;;;;;;-145.69;100.00;71641.19;5053034;28;20268;-80
2022/07/16 05:52:01;;;;;;;5.50;2.85;;;;;;;-145.69;93.72;71539.69;5053228;28;20199;-79
2022/07/16 05:54:27;;;;;;;8.35;3.05;;;;;;;-145.69;90.16;71430.25;5052539;28;20221;-78
2022/07/16 05:56:54;;;;;;;4.25;2.72;;;;;;;-145.69;84.71;71354.63;5053131;28;20676;-78
2022/07/16 05:59:22;;;;;;;3.50;2.40;;;;;;;-145.69;81.80;71314.84;5053148;28;20199;-78
2022/07/16 06:01:48;;;;;;;4.32;2.03;;;;;;;-145.69;78.66;71223.31;5053005;28;20202;-78
2022/07/16 06:04:15;;;;;;;5.82;2.42;;;;;;;-145.69;73.47;71135.75;5052664;28;20230;-78
2022/07/16 06:06:41;;;;;;;3.38;1.73;;;;;;;-145.69;70.47;71097.97;5053000;28;20204;-78
2022/07/16 06:09:08;;;;;;;5.97;1.98;;;;;;;-145.69;67.54;71080.06;5052959;28;20210;-79
2022/07/16 06:11:34;;;;;;;5.40;1.92;;;;;;;-145.69;65.46;71052.19;5053046;28;20205;-78
2022/07/16 06:14:00;;;;;;;5.82;2.22;;;;;;;-145.69;64.53;71032.28;5053048;28;20207;-78
2022/07/16 06:16:28;;;;;;;8.85;1.92;;;;;;;-145.69;57.43;71012.41;5052784;28;20203;-78
2022/07/16 06:18:55;;;;;;;2.75;1.70;;;;;;;-145.69;58.08;70976.59;5052598;28;20199;-78
2022/07/16 06:21:21;;;;;;;3.55;1.85;;;;;;;-145.69;57.17;70940.78;5052465;28;20203;-78
2022/07/16 06:23:50;;;;;;;3.45;1.85;;;;;;;-145.69;54.38;70920.88;5052959;28;20574;-78
2022/07/16 06:26:17;;;;;;;4.45;2.10;;;;;;;-145.69;53.25;70885.06;5052499;28;20206;-78
2022/07/16 06:28:43;;;;;;;7.10;2.15;;;;;;;-145.69;49.44;70857.22;5052676;28;20203;-79
2022/07/16 06:31:09;;;;;;;3.63;2.00;;;;;;;-145.69;49.20;70871.13;5052630;28;20203;-80
2022/07/16 06:33:37;;;;;;;4.63;2.10;;;;;;;-145.69;50.92;70996.47;5052800;28;20207;-79
2022/07/16 06:36:05;;;;;;;4.07;2.17;;;;;;;-145.69;52.86;71028.31;5052459;28;20657;-78
2022/07/16 06:38:32;;;;;;;4.00;2.22;;;;;;;-145.69;52.12;70976.59;5052932;28;20203;-78
2022/07/16 06:40:59;;;;;;;6.60;2.03;;;;;;;-145.69;51.29;70932.81;5062804;28;20203;-77
2022/07/16 06:43:25;;;;;;;7.10;2.13;;;;;;;-145.69;53.91;70950.72;5076359;28;20206;-78
2022/07/16 06:45:51;;;;;;;4.43;2.15;;;;;;;-145.69;59.15;71000.47;5076849;28;20229;-77
2022/07/16 06:48:18;;;;;;;3.17;2.30;;;;;;;-145.69;63.02;71016.38;5076649;28;20612;-77
2022/07/16 06:50:46;;;;;;;4.88;2.50;;;;;;;-145.69;57.36;70980.56;5076729;28;20291;-78
2022/07/16 06:53:12;;;;;;;3.03;2.25;;;;;;;-145.69;62.25;70984.53;5076793;28;20210;-78
2022/07/16 06:55:39;;;;;;;4.35;2.90;;;;;;;-145.69;62.21;71064.13;5076723;28;20202;-77
2022/07/16 06:58:05;;;;;;;4.60;2.67;;;;;;;-145.69;60.39;71076.06;5076479;28;20203;-78
2022/07/16 07:00:32;;;;;;;3.90;2.47;;;;;;;-145.69;59.97;71072.09;5076454;28;20198;-79
2022/07/16 07:02:58;;;;;;;4.72;2.50;;;;;;;-145.69;60.71;71076.06;5076355;28;20213;-77
2022/07/16 07:05:33;;;;;;;5.03;2.95;;;;;;;-145.69;60.83;71068.13;5076102;28;20714;-79
2022/07/16 07:08:03;;;;;;;7.72;2.97;;;;;;;-145.69;60.06;71095.97;5076433;28;20553;-79
2022/07/16 07:10:29;;;;;;;7.90;2.78;;;;;;;-145.69;63.27;71107.91;5075967;28;20199;-79
2022/07/16 07:12:58;;;;;;;6.05;2.75;;;;;;;-145.69;62.36;71115.88;5076065;28;20202;-80
2022/07/16 07:15:25;;;;;;;5.70;2.55;;;;;;;-145.69;63.29;71129.78;5076043;28;20230;-79
2022/07/16 07:17:51;;;;;;;4.22;2.58;;;;;;;-145.69;64.80;71099.94;5076064;28;20219;-80
2022/07/16 07:20:18;;;;;;;9.40;2.90;;;;;;;-145.69;64.69;71103.94;5076030;28;20233;-80
2022/07/16 07:22:47;;;;;;;3.80;2.78;;;;;;;-145.69;65.80;71099.94;5076182;28;20202;-80
2022/07/16 07:25:15;;;;;;;7.25;2.65;;;;;;;-145.69;65.11;71072.09;5075931;28;20273;-80
2022/07/16 07:27:44;;;;;;;3.42;2.65;;;;;;;-145.69;60.62;71097.97;5075944;28;20680;-80
2022/07/16 07:30:12;;;;;;;10.50;2.80;;;;;;;-145.69;60.60;71088.00;5075122;28;20237;-80
2022/07/16 07:32:39;;;;;;;3.95;2.55;;;;;;;-145.69;59.99;71090.00;5076091;28;20284;-79
2022/07/16 07:35:07;;;;;;;4.22;2.63;;;;;;;-145.69;64.41;71038.25;5075949;28;20206;-80
2022/07/16 07:37:36;;;;;;;4.95;2.72;;;;;;;-145.69;62.59;71060.16;5074898;28;20249;-79
2022/07/16 07:40:07;;;;;;;3.60;2.53;;;;;;;-145.69;59.69;71066.13;5075497;28;20222;-80
2022/07/16 07:42:35;;;;;;;6.60;2.70;;;;;;;-145.69;56.85;71097.97;5065424;28;20676;-80
2022/07/16 07:45:04;;;;;;;4.32;2.55;;;;;;;-145.69;61.06;71095.97;5055475;28;20581;-79
2022/07/16 07:47:31;;;;;;;3.95;2.58;;;;;;;-145.69;62.34;71078.06;5055530;28;20196;-80
2022/07/16 07:49:58;;;;;;;5.20;3.15;;;;;;;-145.69;58.63;71068.13;5055156;28;20349;-80
2022/07/16 07:52:25;;;;;;;6.10;2.33;;;;;;;-145.69;56.27;71056.16;5055160;28;20677;-79
2022/07/16 07:54:54;;;;;;;9.15;3.22;;;;;;;-145.69;54.99;71054.19;5055283;28;20199;-83
2022/07/16 07:57:22;;;;;;;6.80;2.63;;;;;;;-145.69;53.41;71046.22;5054932;28;20230;-80
2022/07/16 07:59:50;;;;;;;6.30;2.92;;;;;;;-145.69;56.94;71028.31;5055263;28;20202;-79
2022/07/16 08:02:17;;;;;;;3.42;2.58;;;;;;;-145.69;52.38;71042.25;5055087;28;20211;-79
2022/07/16 08:04:51;;;;;;;4.88;2.60;;;;;;;-145.69;52.16;71006.44;5055200;28;20227;-78
2022/07/16 08:07:25;;;;;;;3.42;2.30;;;;;;;-145.69;52.55;70996.47;5055270;28;20225;-79
2022/07/16 08:09:54;;;;;;;5.20;2.30;;;;;;;-145.69;51.73;70986.53;5055065;28;20199;-79
2022/07/16 08:12:21;;;;;;;6.15;2.80;;;;;;;-145.69;55.68;70996.47;5055151;28;20203;-79
2022/07/16 08:14:49;;;;;;;4.10;2.42;;;;;;;-145.69;53.84;70972.59;5054891;28;20558;-80
2022/07/16 08:17:16;;;;;;;4.15;2.30;;;;;;;-145.69;51.00;70980.56;5054626;28;20645;-80
2022/07/16 08:19:43;;;;;;;3.85;2.50;;;;;;;-145.69;51.34;70980.56;5055097;28;20199;-79
2022/07/16 08:22:09;;;;;;;5.95;2.35;;;;;;;-145.69;51.03;70996.47;5054914;28;20208;-81
2022/07/16 08:27:19;;;;;;;4.15;3.13;;;;;;;-145.69;52.21;71000.47;5055117;28;20206;-79
2022/07/16 08:29:46;;;;;;;5.20;2.50;;;;;;;-145.69;50.29;70982.56;5055095;28;20207;-79
2022/07/16 08:32:12;;;;;;;8.60;2.45;;;;;;;-145.69;50.88;70980.56;5054443;28;20203;-80
2022/07/16 08:34:40;;;;;;;6.50;3.03;;;;;;;-145.69;49.99;71006.44;5054840;28;20205;-79
2022/07/16 08:37:08;;;;;;;4.68;2.38;;;;;;;-145.69;50.17;70992.50;5054490;28;20204;-80
2022/07/16 08:39:42;;;;;;;9.38;3.42;;;;;;;-145.69;51.78;70950.72;5054867;28;20621;-80
2022/07/16 08:42:10;;;;;;;7.30;2.55;;;;;;;-145.69;50.19;70948.72;5072578;28;20234;-79
2022/07/16 08:44:39;;;;;;;4.50;2.60;;;;;;;-145.69;48.93;70946.75;5074601;28;20228;-80
2022/07/16 08:47:10;;;;;;;6.97;3.17;;;;;;;-145.69;49.38;70968.63;5074539;28;20198;-79
2022/07/16 08:49:39;;;;;;;7.97;2.47;;;;;;;-145.69;48.51;70962.66;5073753;28;20321;-81
2022/07/16 08:52:08;;;;;;;6.65;2.35;;;;;;;-145.69;48.46;70946.75;5074514;28;20203;-80
2022/07/16 08:54:38;;;;;;;5.78;2.90;;;;;;;-145.69;47.40;70934.81;5075581;28;20205;-79
2022/07/16 08:57:06;;;;;;;5.80;2.78;;;;;;;-145.69;45.50;70944.75;5074412;28;20210;-79
2022/07/16 08:59:33;;;;;;;4.55;2.47;;;;;;;-145.69;48.33;70936.78;5074217;28;20199;-80
2022/07/16 09:01:59;;;;;;;4.90;2.50;;;;;;;-145.69;45.54;70920.88;5074283;28;20293;-80
2022/07/16 09:04:26;;;;;;;5.90;2.72;;;;;;;-145.69;46.26;70924.84;5073593;28;20223;-81
2022/07/16 09:06:54;;;;;;;6.03;2.38;;;;;;;-145.69;48.81;70910.94;5074236;28;20669;-79
2022/07/16 09:09:20;;;;;;;5.53;2.20;;;;;;;-145.69;45.93;70902.97;5073823;28;20230;-80
2022/07/16 09:11:47;;;;;;;5.35;2.85;;;;;;;-145.69;45.08;70926.84;5073961;28;20199;-77
2022/07/16 09:14:15;;;;;;;5.78;2.75;;;;;;;-145.69;45.38;70920.88;5073870;28;20210;-79
2022/07/16 09:16:43;;;;;;;5.82;2.42;;;;;;;-145.69;46.29;70912.91;5073216;28;20290;-79
2022/07/16 09:19:12;;;;;;;5.30;2.67;;;;;;;-145.69;46.03;70916.91;5073863;28;20207;-79
2022/07/16 09:21:59;;;;;;;6.07;2.30;;;;;;;-145.69;46.92;70916.91;5073841;28;20209;-79
2022/07/16 09:24:40;;;;;;;5.10;2.17;;;;;;;-145.69;45.13;70906.94;5073685;28;20203;-79
2022/07/16 09:27:09;;;;;;;8.65;2.75;;;;;;;-145.69;44.76;70885.06;5073441;28;20550;-80
2022/07/16 09:29:37;;;;;;;3.65;2.03;;;;;;;-145.69;42.29;70857.22;5073607;28;20202;-79
2022/07/16 09:32:04;;;;;;;7.43;2.60;;;;;;;-145.69;44.25;70885.06;5069132;28;20521;-79
2022/07/16 09:34:31;;;;;;;4.10;2.20;;;;;;;-145.69;42.29;70906.94;5058645;28;20290;-78
2022/07/16 09:37:01;;;;;;;6.88;2.35;;;;;;;-145.69;44.01;70895.00;5073296;28;20531;-79
2022/07/16 09:39:28;;;;;;;7.05;2.28;;;;;;;-145.69;44.67;70897.00;5067339;28;20218;-77
2022/07/16 09:41:55;;;;;;;5.40;2.13;;;;;;;-145.69;43.12;70893.03;5069782;28;20195;-78
2022/07/16 09:44:24;;;;;;;5.60;2.13;;;;;;;-145.69;41.46;70889.03;5066767;28;20562;-85
2022/07/16 09:46:59;;;;;;;3.33;2.00;;;;;;;-145.69;42.72;70873.13;5052835;28;20388;-82
2022/07/16 09:49:26;;;;;;;4.35;2.15;;;;;;;-145.69;40.96;70885.06;5053101;28;20240;-78
2022/07/16 09:51:53;;;;;;;7.70;2.40;;;;;;;-145.69;41.73;70875.13;5053213;28;20200;-77
2022/07/16 09:54:29;;;;;;;6.85;2.40;;;;;;;-145.69;43.16;70873.13;5053570;28;20562;-78
2022/07/16 09:57:11;;;;;;;4.55;2.35;;;;;;;-145.69;41.37;70865.16;5053335;28;20202;-80
2022/07/16 09:59:38;;;;;;;7.93;2.15;;;;;;;-145.69;38.88;70881.09;5053086;28;20199;-77
2022/07/16 10:02:05;;;;;;;3.92;2.10;;;;;;;-145.69;38.79;70867.16;5071762;28;20377;-79
2022/07/16 10:04:32;;;;;;;3.97;1.80;;;;;;;-145.69;40.03;70857.22;5072630;28;20661;-77
2022/07/16 10:06:58;;;;;;;3.60;1.80;;;;;;;-145.69;38.50;70859.19;5072776;28;20194;-79
2022/07/16 10:09:27;;;;;;;3.17;1.65;;;;;;;-145.69;38.15;70861.19;5073064;28;20221;-79
2022/07/16 10:11:55;;;;;;;5.40;2.20;;;;;;;-145.69;40.08;70859.19;5072962;28;20195;-77
2022/07/16 10:14:22;;;;;;;4.95;2.22;;;;;;;-145.69;40.45;70829.34;5072889;28;20202;-79
2022/07/16 10:16:49;;;;;;;3.85;2.15;;;;;;;-145.69;40.75;70835.31;5072791;28;20202;-76
2022/07/16 10:19:19;;;;;;;3.70;2.03;;;;;;;-145.69;40.37;70843.28;5073012;28;20199;-76
2022/07/16 10:22:14;;;;;;;4.10;1.95;;;;;;;-145.69;39.80;70855.22;5073029;28;20202;-76
2022/07/16 10:24:47;;;;;;;4.18;2.28;;;;;;;-145.69;45.56;70825.38;5072841;28;20561;-77
2022/07/16 10:27:23;;;;;;;6.00;2.15;;;;;;;-145.69;41.62;70821.41;5072685;28;20669;-78
2022/07/16 10:29:50;;;;;;;3.17;2.03;;;;;;;-145.69;40.07;70823.38;5072969;28;20198;-78
2022/07/16 10:32:29;;;;;;;6.78;2.50;;;;;;;-145.69;42.05;70817.41;5072797;28;20282;-78
2022/07/16 10:34:56;;;;;;;4.10;2.00;;;;;;;-145.69;39.83;70847.25;5072541;28;20661;-78
2022/07/16 10:37:30;;;;;;;4.10;1.92;;;;;;;-145.69;40.59;70825.38;5072402;28;20195;-78
2022/07/16 10:40:04;;;;;;;5.47;2.35;;;;;;;-145.69;41.86;70805.47;5072429;28;20205;-78
2022/07/16 10:42:31;;;;;;;4.68;1.88;;;;;;;-145.69;43.54;70787.56;5072606;28;20701;-79
2022/07/16 10:44:57;;;;;;;4.15;2.20;;;;;;;-145.69;39.54;70761.72;5072773;28;20252;-79
2022/07/16 10:47:44;;;;;;;4.22;2.15;;;;;;;-145.69;40.94;70761.72;5072655;28;20569;-78
2022/07/16 10:50:22;;;;;;;7.32;2.17;;;;;;;-145.69;41.92;70743.81;5072531;28;20233;-79
2022/07/16 10:52:51;;;;;;;4.15;2.25;;;;;;;-145.69;41.92;70731.88;5072106;28;20538;-79
2022/07/16 10:55:40;;;;;;;3.50;2.33;;;;;;;-145.69;41.03;70708.00;5072707;28;20206;-79
2022/07/16 10:58:07;;;;;;;6.43;2.20;;;;;;;-145.69;40.42;70763.69;5072580;28;20295;-77
2022/07/16 11:00:33;;;;;;;3.92;2.20;;;;;;;-145.69;40.15;70769.66;5072373;28;20205;-79
2022/07/16 11:03:02;;;;;;;9.25;2.30;;;;;;;-145.69;41.76;70721.91;5072781;28;20221;-78
2022/07/16 11:05:31;;;;;;;3.92;2.10;;;;;;;-145.69;41.18;70729.88;5072097;28;20593;-80
2022/07/16 11:08:09;;;;;;;9.32;2.88;;;;;;;-145.69;40.37;70721.91;5072506;28;20203;-80
2022/07/16 11:10:39;;;;;;;5.55;2.30;;;;;;;-145.69;40.56;70725.91;5072107;28;20207;-80
2022/07/16 11:13:12;;;;;;;5.28;2.10;;;;;;;-145.69;39.52;70749.78;5072639;28;20203;-82
2022/07/16 11:15:40;;;;;;;5.35;2.20;;;;;;;-145.69;38.93;70741.81;5072469;28;20207;-79
2022/07/16 11:18:15;;;;;;;5.80;2.30;;;;;;;-145.69;41.19;70725.91;5072119;28;20198;-79
2022/07/16 11:20:43;;;;;;;4.90;2.30;;;;;;;-145.69;38.62;70709.97;5072615;28;20202;-79
2022/07/16 11:23:11;;;;;;;5.05;2.30;;;;;;;-145.69;39.45;70719.94;5072393;28;20199;-78